sensor_id;sensor_type;location;lat;lon;timestamp;pressure;altitude;pressure_sealevel;temperature
68588;BMP180;55560;52.174;20.996;2022-09-01T00:00:25;101030.40;;;15.40
68588;BMP180;55560;52.174;20.996;2022-09-01T00:03:02;101028.40;;;15.30
68588;BMP180;55560;52.174;20.996;2022-09-01T00:05:31;101033.60;;;15.30
68588;BMP180;55560;52.174;20.996;2022-09-01T00:07:59;101029.00;;;15.30
68588;BMP180;55560;52.174;20.996;2022-09-01T00:10:27;101028.80;;;15.30
68588;BMP180;55560;52.174;20.996;2022-09-01T00:12:55;101024.80;;;15.30
68588;BMP180;55560;52.174;20.996;2022-09-01T00:15:24;101025.00;;;15.30
68588;BMP180;55560;52.174;20.996;2022-09-01T00:17:53;101024.40;;;15.22
68588;BMP180;55560;52.174;20.996;2022-09-01T00:20:21;101024.80;;;15.20
68588;BMP180;55560;52.174;20.996;2022-09-01T00:22:49;101029.60;;;15.18
68588;BMP180;55560;52.174;20.996;2022-09-01T00:25:18;101029.60;;;15.10
68588;BMP180;55560;52.174;20.996;2022-09-01T00:27:48;101028.60;;;15.10
68588;BMP180;55560;52.174;20.996;2022-09-01T00:30:18;101032.00;;;15.10
68588;BMP180;55560;52.174;20.996;2022-09-01T00:32:46;101026.00;;;15.10
68588;BMP180;55560;52.174;20.996;2022-09-01T00:35:17;101030.40;;;15.10
68588;BMP180;55560;52.174;20.996;2022-09-01T00:37:45;101030.60;;;15.10
68588;BMP180;55560;52.174;20.996;2022-09-01T00:40:16;101025.40;;;15.10
68588;BMP180;55560;52.174;20.996;2022-09-01T00:42:44;101026.40;;;15.08
68588;BMP180;55560;52.174;20.996;2022-09-01T00:45:12;101024.80;;;15.02
68588;BMP180;55560;52.174;20.996;2022-09-01T00:47:41;101024.60;;;15.00
68588;BMP180;55560;52.174;20.996;2022-09-01T00:50:11;101026.20;;;15.00
68588;BMP180;55560;52.174;20.996;2022-09-01T00:52:45;101025.00;;;15.00
68588;BMP180;55560;52.174;20.996;2022-09-01T00:55:21;101024.20;;;15.00
68588;BMP180;55560;52.174;20.996;2022-09-01T00:57:50;101024.80;;;15.00
68588;BMP180;55560;52.174;20.996;2022-09-01T01:00:24;101021.80;;;14.98
68588;BMP180;55560;52.174;20.996;2022-09-01T01:02:52;101023.80;;;14.90
68588;BMP180;55560;52.174;20.996;2022-09-01T01:05:30;101021.40;;;14.90
68588;BMP180;55560;52.174;20.996;2022-09-01T01:08:02;101023.40;;;14.90
68588;BMP180;55560;52.174;20.996;2022-09-01T01:10:34;101019.80;;;14.90
68588;BMP180;55560;52.174;20.996;2022-09-01T01:13:14;101022.40;;;14.90
68588;BMP180;55560;52.174;20.996;2022-09-01T01:15:43;101021.00;;;14.80
68588;BMP180;55560;52.174;20.996;2022-09-01T01:18:13;101024.00;;;14.80
68588;BMP180;55560;52.174;20.996;2022-09-01T01:21:01;101029.60;;;14.80
68588;BMP180;55560;52.174;20.996;2022-09-01T01:24:46;101023.80;;;14.80
68588;BMP180;55560;52.174;20.996;2022-09-01T01:27:14;101019.60;;;14.70
68588;BMP180;55560;52.174;20.996;2022-09-01T01:29:49;101023.40;;;14.70
68588;BMP180;55560;52.174;20.996;2022-09-01T01:32:20;101020.00;;;14.60
68588;BMP180;55560;52.174;20.996;2022-09-01T01:34:47;101016.20;;;14.60
68588;BMP180;55560;52.174;20.996;2022-09-01T01:37:16;101016.00;;;14.60
68588;BMP180;55560;52.174;20.996;2022-09-01T01:39:45;101021.20;;;14.60
68588;BMP180;55560;52.174;20.996;2022-09-01T01:42:15;101015.40;;;14.60
68588;BMP180;55560;52.174;20.996;2022-09-01T01:44:43;101014.80;;;14.60
68588;BMP180;55560;52.174;20.996;2022-09-01T01:47:12;101010.20;;;14.60
68588;BMP180;55560;52.174;20.996;2022-09-01T01:49:40;101013.00;;;14.60
68588;BMP180;55560;52.174;20.996;2022-09-01T01:52:12;101014.20;;;14.60
68588;BMP180;55560;52.174;20.996;2022-09-01T01:54:45;101015.60;;;14.58
68588;BMP180;55560;52.174;20.996;2022-09-01T01:57:13;101012.00;;;14.50
68588;BMP180;55560;52.174;20.996;2022-09-01T01:59:44;101011.60;;;14.50
68588;BMP180;55560;52.174;20.996;2022-09-01T02:02:12;101016.00;;;14.42
68588;BMP180;55560;52.174;20.996;2022-09-01T02:04:40;101013.40;;;14.40
68588;BMP180;55560;52.174;20.996;2022-09-01T02:07:13;101013.40;;;14.40
68588;BMP180;55560;52.174;20.996;2022-09-01T02:09:41;101012.40;;;14.30
68588;BMP180;55560;52.174;20.996;2022-09-01T02:12:15;101014.00;;;14.20
68588;BMP180;55560;52.174;20.996;2022-09-01T02:14:45;101007.40;;;14.20
68588;BMP180;55560;52.174;20.996;2022-09-01T02:17:15;101007.40;;;14.20
68588;BMP180;55560;52.174;20.996;2022-09-01T02:19:43;101007.20;;;14.20
68588;BMP180;55560;52.174;20.996;2022-09-01T02:22:13;101007.40;;;14.20
68588;BMP180;55560;52.174;20.996;2022-09-01T02:24:41;101006.00;;;14.20
68588;BMP180;55560;52.174;20.996;2022-09-01T02:27:15;101003.80;;;14.16
68588;BMP180;55560;52.174;20.996;2022-09-01T02:29:48;101000.00;;;14.10
68588;BMP180;55560;52.174;20.996;2022-09-01T02:32:17;101000.60;;;14.10
68588;BMP180;55560;52.174;20.996;2022-09-01T02:34:49;101005.00;;;14.10
68588;BMP180;55560;52.174;20.996;2022-09-01T02:37:21;101001.20;;;14.00
68588;BMP180;55560;52.174;20.996;2022-09-01T02:39:51;101000.80;;;14.00
68588;BMP180;55560;52.174;20.996;2022-09-01T02:42:19;101002.80;;;13.92
68588;BMP180;55560;52.174;20.996;2022-09-01T02:44:54;101003.40;;;13.86
68588;BMP180;55560;52.174;20.996;2022-09-01T02:47:23;101005.60;;;13.80
68588;BMP180;55560;52.174;20.996;2022-09-01T02:49:56;101010.20;;;13.80
68588;BMP180;55560;52.174;20.996;2022-09-01T02:52:27;101006.60;;;13.80
68588;BMP180;55560;52.174;20.996;2022-09-01T02:54:56;101007.60;;;13.80
68588;BMP180;55560;52.174;20.996;2022-09-01T02:57:24;101007.80;;;13.80
68588;BMP180;55560;52.174;20.996;2022-09-01T02:59:52;101011.00;;;13.70
68588;BMP180;55560;52.174;20.996;2022-09-01T03:02:20;101011.80;;;13.70
68588;BMP180;55560;52.174;20.996;2022-09-01T03:04:48;101005.00;;;13.70
68588;BMP180;55560;52.174;20.996;2022-09-01T03:07:17;101003.80;;;13.60
68588;BMP180;55560;52.174;20.996;2022-09-01T03:09:46;101003.20;;;13.50
68588;BMP180;55560;52.174;20.996;2022-09-01T03:12:13;100999.40;;;13.50
68588;BMP180;55560;52.174;20.996;2022-09-01T03:14:42;100998.40;;;13.50
68588;BMP180;55560;52.174;20.996;2022-09-01T03:17:10;100998.00;;;13.40
68588;BMP180;55560;52.174;20.996;2022-09-01T03:19:38;101004.00;;;13.40
68588;BMP180;55560;52.174;20.996;2022-09-01T03:22:09;101003.80;;;13.40
68588;BMP180;55560;52.174;20.996;2022-09-01T03:24:37;101000.00;;;13.40
68588;BMP180;55560;52.174;20.996;2022-09-01T03:27:05;101002.60;;;13.42
68588;BMP180;55560;52.174;20.996;2022-09-01T03:29:34;101007.00;;;13.40
68588;BMP180;55560;52.174;20.996;2022-09-01T03:32:04;101011.20;;;13.40
68588;BMP180;55560;52.174;20.996;2022-09-01T03:34:32;101011.80;;;13.38
68588;BMP180;55560;52.174;20.996;2022-09-01T03:37:03;101014.80;;;13.30
68588;BMP180;55560;52.174;20.996;2022-09-01T03:39:35;101016.40;;;13.30
68588;BMP180;55560;52.174;20.996;2022-09-01T03:42:04;101016.40;;;13.30
68588;BMP180;55560;52.174;20.996;2022-09-01T03:44:32;101013.80;;;13.30
68588;BMP180;55560;52.174;20.996;2022-09-01T03:47:10;101015.20;;;13.32
68588;BMP180;55560;52.174;20.996;2022-09-01T03:49:38;101017.40;;;13.40
68588;BMP180;55560;52.174;20.996;2022-09-01T03:52:07;101015.00;;;13.40
68588;BMP180;55560;52.174;20.996;2022-09-01T03:54:35;101013.00;;;13.40
68588;BMP180;55560;52.174;20.996;2022-09-01T03:57:04;101012.00;;;13.42
68588;BMP180;55560;52.174;20.996;2022-09-01T03:59:33;101012.40;;;13.48
68588;BMP180;55560;52.174;20.996;2022-09-01T04:02:01;101007.00;;;13.50
68588;BMP180;55560;52.174;20.996;2022-09-01T04:04:30;101007.20;;;13.50
68588;BMP180;55560;52.174;20.996;2022-09-01T04:06:59;101002.20;;;13.50
68588;BMP180;55560;52.174;20.996;2022-09-01T04:09:29;101002.20;;;13.48
68588;BMP180;55560;52.174;20.996;2022-09-01T04:11:59;101004.60;;;13.50
68588;BMP180;55560;52.174;20.996;2022-09-01T04:14:28;101010.40;;;13.40
68588;BMP180;55560;52.174;20.996;2022-09-01T04:16:57;101011.20;;;13.40
68588;BMP180;55560;52.174;20.996;2022-09-01T04:19:43;101010.20;;;13.40
68588;BMP180;55560;52.174;20.996;2022-09-01T04:22:13;101011.20;;;13.40
68588;BMP180;55560;52.174;20.996;2022-09-01T04:24:43;101011.40;;;13.30
68588;BMP180;55560;52.174;20.996;2022-09-01T04:27:14;101014.40;;;13.30
68588;BMP180;55560;52.174;20.996;2022-09-01T04:29:47;101014.40;;;13.30
68588;BMP180;55560;52.174;20.996;2022-09-01T04:32:17;101014.20;;;13.20
68588;BMP180;55560;52.174;20.996;2022-09-01T04:34:51;101015.20;;;13.20
68588;BMP180;55560;52.174;20.996;2022-09-01T04:37:20;101013.00;;;13.20
68588;BMP180;55560;52.174;20.996;2022-09-01T04:39:56;101018.80;;;13.20
68588;BMP180;55560;52.174;20.996;2022-09-01T04:42:28;101018.00;;;13.30
68588;BMP180;55560;52.174;20.996;2022-09-01T04:44:58;101017.40;;;13.30
68588;BMP180;55560;52.174;20.996;2022-09-01T04:47:37;101015.40;;;13.30
68588;BMP180;55560;52.174;20.996;2022-09-01T04:50:11;101016.40;;;13.40
68588;BMP180;55560;52.174;20.996;2022-09-01T04:53:05;101015.00;;;13.40
68588;BMP180;55560;52.174;20.996;2022-09-01T04:55:46;101016.40;;;13.50
68588;BMP180;55560;52.174;20.996;2022-09-01T04:58:18;101016.40;;;13.50
68588;BMP180;55560;52.174;20.996;2022-09-01T05:00:48;101014.40;;;13.50
68588;BMP180;55560;52.174;20.996;2022-09-01T05:03:20;101019.60;;;13.60
68588;BMP180;55560;52.174;20.996;2022-09-01T05:05:56;101018.80;;;13.60
68588;BMP180;55560;52.174;20.996;2022-09-01T05:08:28;101018.00;;;13.60
68588;BMP180;55560;52.174;20.996;2022-09-01T05:11:03;101018.60;;;13.70
68588;BMP180;55560;52.174;20.996;2022-09-01T05:13:38;101010.40;;;13.74
68588;BMP180;55560;52.174;20.996;2022-09-01T05:16:08;101014.00;;;13.84
68588;BMP180;55560;52.174;20.996;2022-09-01T05:18:44;101019.00;;;14.00
68588;BMP180;55560;52.174;20.996;2022-09-01T05:21:17;101018.80;;;14.00
68588;BMP180;55560;52.174;20.996;2022-09-01T05:23:47;101020.00;;;14.10
68588;BMP180;55560;52.174;20.996;2022-09-01T05:26:26;101016.20;;;14.20
68588;BMP180;55560;52.174;20.996;2022-09-01T05:28:58;101019.80;;;14.38
68588;BMP180;55560;52.174;20.996;2022-09-01T05:31:29;101020.00;;;14.60
68588;BMP180;55560;52.174;20.996;2022-09-01T05:34:03;101021.80;;;14.96
68588;BMP180;55560;52.174;20.996;2022-09-01T05:36:31;101018.00;;;15.32
68588;BMP180;55560;52.174;20.996;2022-09-01T05:39:03;101017.20;;;15.70
68588;BMP180;55560;52.174;20.996;2022-09-01T05:41:32;101018.60;;;16.00
68588;BMP180;55560;52.174;20.996;2022-09-01T05:44:03;101018.60;;;16.30
68588;BMP180;55560;52.174;20.996;2022-09-01T05:46:36;101016.60;;;16.60
68588;BMP180;55560;52.174;20.996;2022-09-01T05:49:07;101020.60;;;16.98
68588;BMP180;55560;52.174;20.996;2022-09-01T05:51:42;101021.00;;;17.56
68588;BMP180;55560;52.174;20.996;2022-09-01T05:54:13;101021.80;;;17.70
68588;BMP180;55560;52.174;20.996;2022-09-01T05:56:43;101023.00;;;17.64
68588;BMP180;55560;52.174;20.996;2022-09-01T05:59:17;101022.00;;;17.60
68588;BMP180;55560;52.174;20.996;2022-09-01T06:01:58;101022.80;;;17.50
68588;BMP180;55560;52.174;20.996;2022-09-01T06:04:27;101022.00;;;17.46
68588;BMP180;55560;52.174;20.996;2022-09-01T06:07:05;101016.20;;;17.40
68588;BMP180;55560;52.174;20.996;2022-09-01T06:09:46;101019.60;;;17.32
68588;BMP180;55560;52.174;20.996;2022-09-01T06:12:17;101013.40;;;17.40
68588;BMP180;55560;52.174;20.996;2022-09-01T06:14:48;101013.20;;;17.40
68588;BMP180;55560;52.174;20.996;2022-09-01T06:17:18;101011.60;;;17.78
68588;BMP180;55560;52.174;20.996;2022-09-01T06:19:51;101012.00;;;18.74
68588;BMP180;55560;52.174;20.996;2022-09-01T06:22:20;101017.00;;;19.78
68588;BMP180;55560;52.174;20.996;2022-09-01T06:24:50;101020.20;;;20.44
68588;BMP180;55560;52.174;20.996;2022-09-01T06:27:27;101027.20;;;21.10
68588;BMP180;55560;52.174;20.996;2022-09-01T06:29:56;101027.60;;;21.78
68588;BMP180;55560;52.174;20.996;2022-09-01T06:32:25;101030.00;;;22.06
68588;BMP180;55560;52.174;20.996;2022-09-01T06:34:54;101024.20;;;22.10
68588;BMP180;55560;52.174;20.996;2022-09-01T06:37:24;101032.80;;;22.34
68588;BMP180;55560;52.174;20.996;2022-09-01T06:39:55;101030.80;;;22.50
68588;BMP180;55560;52.174;20.996;2022-09-01T06:42:24;101031.20;;;22.62
68588;BMP180;55560;52.174;20.996;2022-09-01T06:44:58;101036.20;;;22.90
68588;BMP180;55560;52.174;20.996;2022-09-01T06:47:26;101038.60;;;23.40
68588;BMP180;55560;52.174;20.996;2022-09-01T06:49:58;101038.00;;;23.00
68588;BMP180;55560;52.174;20.996;2022-09-01T06:52:28;101038.60;;;22.34
68588;BMP180;55560;52.174;20.996;2022-09-01T06:55:16;101031.40;;;21.70
68588;BMP180;55560;52.174;20.996;2022-09-01T06:57:45;101030.20;;;21.30
68588;BMP180;55560;52.174;20.996;2022-09-01T07:00:37;101038.00;;;21.00
68588;BMP180;55560;52.174;20.996;2022-09-01T07:03:12;101040.80;;;20.90
68588;BMP180;55560;52.174;20.996;2022-09-01T07:06:06;101028.60;;;21.22
68588;BMP180;55560;52.174;20.996;2022-09-01T07:08:58;101029.40;;;21.40
68588;BMP180;55560;52.174;20.996;2022-09-01T07:12:12;101030.80;;;22.28
68588;BMP180;55560;52.174;20.996;2022-09-01T07:14:56;101033.00;;;23.40
68588;BMP180;55560;52.174;20.996;2022-09-01T07:17:55;101038.00;;;23.88
68588;BMP180;55560;52.174;20.996;2022-09-01T07:20:26;101037.40;;;24.50
68588;BMP180;55560;52.174;20.996;2022-09-01T07:22:56;101034.80;;;24.82
68588;BMP180;55560;52.174;20.996;2022-09-01T07:25:38;101038.40;;;25.84
68588;BMP180;55560;52.174;20.996;2022-09-01T07:28:32;101041.60;;;26.70
68588;BMP180;55560;52.174;20.996;2022-09-01T07:31:04;101040.20;;;26.40
68588;BMP180;55560;52.174;20.996;2022-09-01T07:34:00;101045.20;;;26.40
68588;BMP180;55560;52.174;20.996;2022-09-01T07:36:48;101046.80;;;25.86
68588;BMP180;55560;52.174;20.996;2022-09-01T07:39:38;101046.40;;;25.22
68588;BMP180;55560;52.174;20.996;2022-09-01T07:42:36;101045.20;;;24.66
68588;BMP180;55560;52.174;20.996;2022-09-01T07:45:45;101040.40;;;24.08
68588;BMP180;55560;52.174;20.996;2022-09-01T07:48:37;101035.40;;;23.60
68588;BMP180;55560;52.174;20.996;2022-09-01T07:51:26;101036.20;;;23.26
68588;BMP180;55560;52.174;20.996;2022-09-01T07:54:05;101035.40;;;22.90
68588;BMP180;55560;52.174;20.996;2022-09-01T07:56:33;101038.80;;;22.54
68588;BMP180;55560;52.174;20.996;2022-09-01T07:59:07;101044.80;;;22.30
68588;BMP180;55560;52.174;20.996;2022-09-01T08:01:48;101045.00;;;21.96
68588;BMP180;55560;52.174;20.996;2022-09-01T08:04:17;101047.60;;;21.70
68588;BMP180;55560;52.174;20.996;2022-09-01T08:06:49;101043.60;;;21.50
68588;BMP180;55560;52.174;20.996;2022-09-01T08:09:18;101043.40;;;21.20
68588;BMP180;55560;52.174;20.996;2022-09-01T08:12:05;101047.40;;;20.90
68588;BMP180;55560;52.174;20.996;2022-09-01T08:14:38;101043.20;;;20.78
68588;BMP180;55560;52.174;20.996;2022-09-01T08:17:06;101046.00;;;20.70
68588;BMP180;55560;52.174;20.996;2022-09-01T08:19:56;101048.40;;;20.60
68588;BMP180;55560;52.174;20.996;2022-09-01T08:22:48;101048.40;;;20.50
68588;BMP180;55560;52.174;20.996;2022-09-01T08:25:38;101049.80;;;20.40
68588;BMP180;55560;52.174;20.996;2022-09-01T08:28:07;101050.20;;;20.34
68588;BMP180;55560;52.174;20.996;2022-09-01T08:30:40;101042.60;;;20.30
68588;BMP180;55560;52.174;20.996;2022-09-01T08:33:18;101044.00;;;20.20
68588;BMP180;55560;52.174;20.996;2022-09-01T08:35:48;101043.20;;;20.20
68588;BMP180;55560;52.174;20.996;2022-09-01T08:38:17;101047.80;;;20.18
68588;BMP180;55560;52.174;20.996;2022-09-01T08:40:53;101040.40;;;20.20
68588;BMP180;55560;52.174;20.996;2022-09-01T08:46:40;101041.80;;;20.10
68588;BMP180;55560;52.174;20.996;2022-09-01T08:49:19;101045.60;;;20.00
68588;BMP180;55560;52.174;20.996;2022-09-01T08:52:35;101046.40;;;19.90
68588;BMP180;55560;52.174;20.996;2022-09-01T08:55:31;101045.60;;;19.80
68588;BMP180;55560;52.174;20.996;2022-09-01T08:58:01;101043.80;;;19.70
68588;BMP180;55560;52.174;20.996;2022-09-01T09:01:02;101039.80;;;19.60
68588;BMP180;55560;52.174;20.996;2022-09-01T09:03:39;101040.80;;;19.60
68588;BMP180;55560;52.174;20.996;2022-09-01T09:06:44;101036.00;;;19.60
68588;BMP180;55560;52.174;20.996;2022-09-01T09:09:15;101037.00;;;19.60
68588;BMP180;55560;52.174;20.996;2022-09-01T09:12:04;101033.40;;;19.60
68588;BMP180;55560;52.174;20.996;2022-09-01T09:17:28;101036.80;;;19.60
68588;BMP180;55560;52.174;20.996;2022-09-01T09:19:59;101033.20;;;19.60
68588;BMP180;55560;52.174;20.996;2022-09-01T09:22:27;101032.40;;;19.72
68588;BMP180;55560;52.174;20.996;2022-09-01T09:25:17;101033.80;;;19.84
68588;BMP180;55560;52.174;20.996;2022-09-01T09:27:48;101027.40;;;19.98
68588;BMP180;55560;52.174;20.996;2022-09-01T09:30:29;101026.00;;;20.00
68588;BMP180;55560;52.174;20.996;2022-09-01T09:33:04;101023.40;;;20.10
68588;BMP180;55560;52.174;20.996;2022-09-01T09:35:52;101022.20;;;20.20
68588;BMP180;55560;52.174;20.996;2022-09-01T09:38:24;101023.60;;;20.40
68588;BMP180;55560;52.174;20.996;2022-09-01T09:46:41;101016.60;;;20.60
68588;BMP180;55560;52.174;20.996;2022-09-01T09:49:27;101019.60;;;20.68
68588;BMP180;55560;52.174;20.996;2022-09-01T09:54:39;101006.40;;;20.70
68588;BMP180;55560;52.174;20.996;2022-09-01T10:02:44;101004.40;;;20.60
68588;BMP180;55560;52.174;20.996;2022-09-01T10:11:02;101008.80;;;20.40
68588;BMP180;55560;52.174;20.996;2022-09-01T10:13:31;101003.20;;;20.50
68588;BMP180;55560;52.174;20.996;2022-09-01T10:16:08;101002.40;;;20.60
68588;BMP180;55560;52.174;20.996;2022-09-01T10:18:49;101005.60;;;20.70
68588;BMP180;55560;52.174;20.996;2022-09-01T10:21:45;101007.80;;;20.70
68588;BMP180;55560;52.174;20.996;2022-09-01T10:24:35;101003.60;;;20.76
68588;BMP180;55560;52.174;20.996;2022-09-01T10:27:28;101002.60;;;20.80
68588;BMP180;55560;52.174;20.996;2022-09-01T10:32:56;101002.20;;;20.70
68588;BMP180;55560;52.174;20.996;2022-09-01T10:35:44;101001.00;;;20.70
68588;BMP180;55560;52.174;20.996;2022-09-01T10:38:25;100999.00;;;20.68
68588;BMP180;55560;52.174;20.996;2022-09-01T10:40:57;101004.40;;;20.62
68588;BMP180;55560;52.174;20.996;2022-09-01T10:43:43;101001.80;;;20.70
68588;BMP180;55560;52.174;20.996;2022-09-01T10:49:19;100998.00;;;20.80
68588;BMP180;55560;52.174;20.996;2022-09-01T10:51:56;101004.80;;;20.80
68588;BMP180;55560;52.174;20.996;2022-09-01T10:54:52;101005.00;;;20.90
68588;BMP180;55560;52.174;20.996;2022-09-01T11:06:01;101000.20;;;21.20
68588;BMP180;55560;52.174;20.996;2022-09-01T11:09:00;100997.20;;;21.12
68588;BMP180;55560;52.174;20.996;2022-09-01T11:14:25;101005.80;;;21.00
68588;BMP180;55560;52.174;20.996;2022-09-01T11:23:06;100999.80;;;20.90
68588;BMP180;55560;52.174;20.996;2022-09-01T11:25:43;100999.20;;;20.96
68588;BMP180;55560;52.174;20.996;2022-09-01T11:31:17;100988.60;;;21.10
68588;BMP180;55560;52.174;20.996;2022-09-01T11:34:11;100991.00;;;21.20
68588;BMP180;55560;52.174;20.996;2022-09-01T11:37:00;100994.80;;;21.30
68588;BMP180;55560;52.174;20.996;2022-09-01T11:39:44;100998.80;;;21.40
68588;BMP180;55560;52.174;20.996;2022-09-01T11:42:25;100992.20;;;21.40
68588;BMP180;55560;52.174;20.996;2022-09-01T11:45:29;100999.40;;;21.50
68588;BMP180;55560;52.174;20.996;2022-09-01T11:48:05;100997.80;;;21.60
68588;BMP180;55560;52.174;20.996;2022-09-01T11:50:38;101008.20;;;21.70
68588;BMP180;55560;52.174;20.996;2022-09-01T11:53:09;100997.20;;;21.60
68588;BMP180;55560;52.174;20.996;2022-09-01T11:55:45;100999.40;;;21.60
68588;BMP180;55560;52.174;20.996;2022-09-01T11:58:34;100999.00;;;21.52
68588;BMP180;55560;52.174;20.996;2022-09-01T12:01:21;100992.60;;;21.50
68588;BMP180;55560;52.174;20.996;2022-09-01T12:03:50;101002.80;;;21.44
68588;BMP180;55560;52.174;20.996;2022-09-01T12:06:28;101000.80;;;21.40
68588;BMP180;55560;52.174;20.996;2022-09-01T12:09:02;101007.80;;;21.40
68588;BMP180;55560;52.174;20.996;2022-09-01T12:11:34;101005.60;;;21.30
68588;BMP180;55560;52.174;20.996;2022-09-01T12:14:06;101005.00;;;21.30
68588;BMP180;55560;52.174;20.996;2022-09-01T12:16:39;101001.80;;;21.20
68588;BMP180;55560;52.174;20.996;2022-09-01T12:19:29;101001.20;;;21.20
68588;BMP180;55560;52.174;20.996;2022-09-01T12:22:14;100998.40;;;21.14
68588;BMP180;55560;52.174;20.996;2022-09-01T12:24:47;100994.00;;;21.10
68588;BMP180;55560;52.174;20.996;2022-09-01T12:27:15;100991.80;;;21.10
68588;BMP180;55560;52.174;20.996;2022-09-01T12:29:43;100987.20;;;21.20
68588;BMP180;55560;52.174;20.996;2022-09-01T12:32:12;100981.40;;;21.30
68588;BMP180;55560;52.174;20.996;2022-09-01T12:34:59;100973.60;;;21.50
68588;BMP180;55560;52.174;20.996;2022-09-01T12:37:28;100965.80;;;21.80
68588;BMP180;55560;52.174;20.996;2022-09-01T12:39:59;100971.60;;;22.00
68588;BMP180;55560;52.174;20.996;2022-09-01T12:42:30;100981.80;;;22.10
68588;BMP180;55560;52.174;20.996;2022-09-01T12:45:09;100985.60;;;22.20
68588;BMP180;55560;52.174;20.996;2022-09-01T12:52:46;100987.20;;;22.00
68588;BMP180;55560;52.174;20.996;2022-09-01T12:55:19;100985.00;;;21.98
68588;BMP180;55560;52.174;20.996;2022-09-01T12:58:09;100977.60;;;21.80
68588;BMP180;55560;52.174;20.996;2022-09-01T13:01:01;100977.40;;;21.96
68588;BMP180;55560;52.174;20.996;2022-09-01T13:03:31;100975.20;;;22.10
68588;BMP180;55560;52.174;20.996;2022-09-01T13:06:02;100965.60;;;22.34
68588;BMP180;55560;52.174;20.996;2022-09-01T13:08:33;100962.20;;;22.60
68588;BMP180;55560;52.174;20.996;2022-09-01T13:11:08;100968.00;;;22.94
68588;BMP180;55560;52.174;20.996;2022-09-01T13:13:38;100966.20;;;23.34
68588;BMP180;55560;52.174;20.996;2022-09-01T13:16:06;100962.60;;;23.68
68588;BMP180;55560;52.174;20.996;2022-09-01T13:18:42;100976.00;;;23.90
68588;BMP180;55560;52.174;20.996;2022-09-01T13:21:31;100964.80;;;23.98
68588;BMP180;55560;52.174;20.996;2022-09-01T13:24:04;100961.60;;;23.88
68588;BMP180;55560;52.174;20.996;2022-09-01T13:26:34;100959.60;;;23.70
68588;BMP180;55560;52.174;20.996;2022-09-01T13:29:04;100964.20;;;23.52
68588;BMP180;55560;52.174;20.996;2022-09-01T13:31:32;100968.40;;;23.34
68588;BMP180;55560;52.174;20.996;2022-09-01T13:34:02;100961.60;;;23.10
68588;BMP180;55560;52.174;20.996;2022-09-01T13:36:50;100969.60;;;22.90
68588;BMP180;55560;52.174;20.996;2022-09-01T13:39:20;100965.60;;;22.70
68588;BMP180;55560;52.174;20.996;2022-09-01T13:41:49;100964.80;;;22.60
68588;BMP180;55560;52.174;20.996;2022-09-01T13:44:17;100971.20;;;22.68
68588;BMP180;55560;52.174;20.996;2022-09-01T13:46:45;100974.40;;;22.70
68588;BMP180;55560;52.174;20.996;2022-09-01T13:49:33;100972.20;;;22.60
68588;BMP180;55560;52.174;20.996;2022-09-01T13:52:22;100970.00;;;22.50
68588;BMP180;55560;52.174;20.996;2022-09-01T13:54:50;100968.40;;;22.38
68588;BMP180;55560;52.174;20.996;2022-09-01T13:57:18;100969.40;;;22.20
68588;BMP180;55560;52.174;20.996;2022-09-01T13:59:46;100964.00;;;22.26
68588;BMP180;55560;52.174;20.996;2022-09-01T14:02:14;100968.40;;;22.84
68588;BMP180;55560;52.174;20.996;2022-09-01T14:04:43;100969.60;;;25.46
68588;BMP180;55560;52.174;20.996;2022-09-01T14:07:11;100981.40;;;28.10
68588;BMP180;55560;52.174;20.996;2022-09-01T14:09:39;100979.80;;;30.44
68588;BMP180;55560;52.174;20.996;2022-09-01T14:12:07;100987.80;;;32.48
68588;BMP180;55560;52.174;20.996;2022-09-01T14:14:34;100991.80;;;34.46
68588;BMP180;55560;52.174;20.996;2022-09-01T14:17:22;101002.80;;;36.46
68588;BMP180;55560;52.174;20.996;2022-09-01T14:19:51;101000.20;;;35.98
68588;BMP180;55560;52.174;20.996;2022-09-01T14:22:18;100989.20;;;33.98
68588;BMP180;55560;52.174;20.996;2022-09-01T14:24:47;100989.00;;;32.20
68588;BMP180;55560;52.174;20.996;2022-09-01T14:27:15;100996.80;;;30.72
68588;BMP180;55560;52.174;20.996;2022-09-01T14:29:49;100990.20;;;29.48
68588;BMP180;55560;52.174;20.996;2022-09-01T14:32:21;100991.00;;;28.28
68588;BMP180;55560;52.174;20.996;2022-09-01T14:34:55;100985.80;;;27.36
68588;BMP180;55560;52.174;20.996;2022-09-01T14:37:24;100983.60;;;26.62
68588;BMP180;55560;52.174;20.996;2022-09-01T14:39:55;100989.20;;;26.00
68588;BMP180;55560;52.174;20.996;2022-09-01T14:42:23;100985.40;;;25.40
68588;BMP180;55560;52.174;20.996;2022-09-01T14:44:52;100985.80;;;24.88
68588;BMP180;55560;52.174;20.996;2022-09-01T14:47:20;100983.60;;;24.40
68588;BMP180;55560;52.174;20.996;2022-09-01T14:49:51;100981.00;;;23.98
68588;BMP180;55560;52.174;20.996;2022-09-01T14:52:20;100983.40;;;23.62
68588;BMP180;55560;52.174;20.996;2022-09-01T14:54:48;100981.60;;;23.30
68588;BMP180;55560;52.174;20.996;2022-09-01T14:57:16;100977.80;;;23.00
68588;BMP180;55560;52.174;20.996;2022-09-01T15:00:07;100977.40;;;22.66
68588;BMP180;55560;52.174;20.996;2022-09-01T15:02:40;100977.00;;;22.40
68588;BMP180;55560;52.174;20.996;2022-09-01T15:05:10;100972.20;;;22.20
68588;BMP180;55560;52.174;20.996;2022-09-01T15:07:40;100975.20;;;22.00
68588;BMP180;55560;52.174;20.996;2022-09-01T15:10:11;100966.00;;;21.90
68588;BMP180;55560;52.174;20.996;2022-09-01T15:12:54;100972.20;;;21.80
68588;BMP180;55560;52.174;20.996;2022-09-01T15:15:23;100971.20;;;21.60
68588;BMP180;55560;52.174;20.996;2022-09-01T15:17:51;100970.00;;;21.50
68588;BMP180;55560;52.174;20.996;2022-09-01T15:20:19;100968.00;;;21.40
68588;BMP180;55560;52.174;20.996;2022-09-01T15:23:06;100968.60;;;21.40